Time;durP1;ratioP1;P1;durP2;ratioP2;P2;SDS_P1;SDS_P2;PMS_P1;PMS_P2;Temp;Humidity;BMP_temperature;BMP_pressure;BME280_temperature;BME280_humidity;BME280_pressure;Samples;Min_cycle;Max_cycle;Signal;HPM_P1;HPM_P2
2021/12/18 00:01:59;;;;;;;11.68;5.15;;;;;;;7.63;100.00;104001.38;5032084;28;20053;-54
2021/12/18 00:04:27;;;;;;;11.88;5.25;;;;;;;7.55;100.00;103998.78;5031726;28;20045;-53
2021/12/18 00:06:57;;;;;;;11.00;4.55;;;;;;;7.59;100.00;104002.25;5034441;28;20097;-54
2021/12/18 00:09:29;;;;;;;11.70;4.88;;;;;;;7.60;100.00;103986.53;5034737;28;20041;-55
2021/12/18 00:11:59;;;;;;;10.82;5.43;;;;;;;7.59;100.00;103992.66;5034290;28;20123;-55
2021/12/18 00:14:27;;;;;;;10.63;4.55;;;;;;;7.54;100.00;103986.56;5034578;28;20049;-53
2021/12/18 00:16:55;;;;;;;11.93;5.43;;;;;;;7.57;100.00;103990.94;5032613;28;20045;-56
2021/12/18 00:19:26;;;;;;;9.40;4.50;;;;;;;7.56;100.00;103984.78;5029786;28;20370;-55
2021/12/18 00:21:55;;;;;;;12.00;5.22;;;;;;;7.56;100.00;103984.78;5033989;28;20067;-54
2021/12/18 00:24:24;;;;;;;11.20;5.22;;;;;;;7.59;100.00;103978.69;5034187;28;20045;-52
2021/12/18 00:26:53;;;;;;;10.77;5.57;;;;;;;7.60;100.00;103970.81;5034093;28;20045;-54
2021/12/18 00:29:23;;;;;;;11.70;5.53;;;;;;;7.59;100.00;103974.34;5034140;28;20507;-56
2021/12/18 00:31:51;;;;;;;11.00;4.80;;;;;;;7.59;100.00;103963.84;5033911;28;20054;-53
2021/12/18 00:34:19;;;;;;;10.80;4.55;;;;;;;7.60;100.00;103964.72;5033842;28;20579;-55
2021/12/18 00:36:48;;;;;;;10.20;4.75;;;;;;;7.56;100.00;103955.97;5031171;28;20057;-56
2021/12/18 00:39:16;;;;;;;10.60;5.20;;;;;;;7.56;100.00;103965.59;5032174;28;20111;-55
2021/12/18 00:42:01;;;;;;;9.60;4.30;;;;;;;7.59;100.00;103976.97;5033676;28;20038;-56
2021/12/18 00:44:30;;;;;;;12.88;5.55;;;;;;;7.60;100.00;103978.66;5033684;28;20060;-53
2021/12/18 00:46:58;;;;;;;10.70;5.30;;;;;;;7.60;100.00;103975.19;5033818;28;20045;-56
2021/12/18 00:49:27;;;;;;;12.60;5.82;;;;;;;7.55;100.00;103976.94;5033682;28;20095;-54
2021/12/18 00:51:55;;;;;;;12.07;5.55;;;;;;;7.56;100.00;103979.56;5033533;28;20045;-54
2021/12/18 00:54:23;;;;;;;14.43;5.82;;;;;;;7.57;100.00;103976.06;5033633;28;20049;-55
2021/12/18 00:56:51;;;;;;;11.18;5.60;;;;;;;7.61;100.00;103983.03;5033909;28;20052;-56
2021/12/18 00:59:19;;;;;;;12.13;6.60;;;;;;;7.60;100.00;103977.81;5033488;28;20054;-56
2021/12/18 01:01:48;;;;;;;14.02;5.63;;;;;;;7.57;100.00;103981.31;5033721;28;20556;-55
2021/12/18 01:04:17;;;;;;;12.77;5.70;;;;;;;7.54;100.00;103976.09;5033544;28;20041;-55
2021/12/18 01:06:46;;;;;;;11.65;5.43;;;;;;;7.52;100.00;103988.31;5033442;28;20080;-55
2021/12/18 01:09:16;;;;;;;11.88;5.38;;;;;;;7.51;100.00;103975.22;5033286;28;20040;-56
2021/12/18 01:11:47;;;;;;;11.02;5.18;;;;;;;7.53;100.00;103976.09;5033072;28;20052;-54
2021/12/18 01:14:33;;;;;;;12.25;5.85;;;;;;;7.53;100.00;103976.97;5033198;28;20049;-54
2021/12/18 01:22:50;;;;;;;13.45;5.85;;;;;;;7.52;100.00;103972.59;5032788;28;20050;-55
2021/12/18 01:25:20;;;;;;;12.20;5.68;;;;;;;7.44;100.00;103976.97;5030336;28;20045;-54
2021/12/18 01:27:48;;;;;;;12.73;5.97;;;;;;;7.44;100.00;103971.72;5032098;28;20045;-55
2021/12/18 01:30:19;;;;;;;12.40;5.43;;;;;;;7.43;100.00;103978.72;5032826;28;20049;-54
2021/12/18 01:32:49;;;;;;;13.20;5.70;;;;;;;7.43;100.00;103969.97;5031448;28;20488;-55
2021/12/18 01:35:18;;;;;;;11.63;5.75;;;;;;;7.48;100.00;103976.09;5029802;28;20046;-50
2021/12/18 01:37:47;;;;;;;10.35;5.07;;;;;;;7.51;100.00;103976.09;5030753;28;20098;-53
2021/12/18 01:40:15;;;;;;;10.30;5.18;;;;;;;7.49;100.00;103975.22;5032397;28;20049;-55
2021/12/18 01:45:39;;;;;;;11.20;4.88;;;;;;;7.48;100.00;103977.84;5032639;28;20037;-55
2021/12/18 01:51:21;;;;;;;10.13;4.80;;;;;;;7.44;100.00;103979.59;5031080;28;20404;-55
2021/12/18 01:53:50;;;;;;;;;;;;;;;7.36;100.00;103982.25;5030100;28;20048;-54
2021/12/18 01:56:19;;;;;;;10.85;4.72;;;;;;;7.41;100.00;103976.97;5032683;28;19998;-55
2021/12/18 01:58:47;;;;;;;11.90;4.63;;;;;;;7.45;100.00;103970.88;5032557;28;20053;-54
2021/12/18 02:01:18;;;;;;;10.57;4.50;;;;;;;7.49;100.00;103982.22;5032359;28;20053;-55
2021/12/18 02:03:48;;;;;;;10.80;4.55;;;;;;;7.51;100.00;103975.22;5032451;28;20412;-55
2021/12/18 02:06:17;;;;;;;10.23;4.63;;;;;;;7.45;100.00;103973.47;5031949;28;20116;-55
2021/12/18 02:08:45;;;;;;;10.23;4.63;;;;;;;7.48;100.00;103970.84;5029527;28;20503;-54
2021/12/18 02:11:26;;;;;;;9.90;4.63;;;;;;;7.50;100.00;103969.13;5030371;28;20045;-54
2021/12/18 02:14:23;;;;;;;11.43;4.72;;;;;;;7.51;100.00;103970.88;5032445;28;20111;-55
2021/12/18 02:19:57;;;;;;;10.40;4.32;;;;;;;7.51;100.00;103970.88;5032365;28;20132;-54
2021/12/18 02:22:28;;;;;;;10.13;4.45;;;;;;;7.50;100.00;103958.63;5032090;28;20111;-53
2021/12/18 02:24:56;;;;;;;9.15;3.95;;;;;;;7.56;100.00;103960.38;5032065;28;20107;-53
2021/12/18 02:27:24;;;;;;;9.85;4.47;;;;;;;7.51;100.00;103957.78;5031328;28;20053;-55
2021/12/18 02:29:52;;;;;;;10.07;4.72;;;;;;;7.52;100.00;103962.09;5029180;28;20566;-52
2021/12/18 02:32:22;;;;;;;11.07;4.85;;;;;;;7.52;100.00;103953.38;5031075;28;20516;-54
2021/12/18 02:34:57;;;;;;;10.45;4.65;;;;;;;7.49;100.00;103958.66;5032115;28;20508;-55
2021/12/18 02:37:29;;;;;;;9.30;4.28;;;;;;;7.47;100.00;103953.38;5031966;28;20523;-53
2021/12/18 02:42:40;;;;;;;10.13;4.70;;;;;;;7.51;100.00;103949.91;5029836;28;20088;-54
2021/12/18 02:45:09;;;;;;;11.52;4.95;;;;;;;7.54;100.00;103956.88;5030217;28;20492;-55
2021/12/18 02:47:37;;;;;;;9.70;4.85;;;;;;;7.53;100.00;103960.38;5027563;28;20081;-55
2021/12/18 02:50:06;;;;;;;10.00;4.20;;;;;;;7.53;100.00;103963.84;5031346;28;20504;-55
2021/12/18 02:52:36;;;;;;;11.82;5.20;;;;;;;7.45;100.00;103956.00;5029574;28;20061;-54
2021/12/18 02:55:04;;;;;;;11.75;4.78;;;;;;;7.53;100.00;103956.00;5029292;28;20045;-55
2021/12/18 02:57:32;;;;;;;10.00;4.50;;;;;;;7.52;100.00;103951.63;5030754;28;20477;-54
2021/12/18 03:00:00;;;;;;;10.45;5.00;;;;;;;7.47;100.00;103942.91;5031615;28;20377;-54
2021/12/18 03:02:33;;;;;;;12.45;4.80;;;;;;;7.43;100.00;103943.78;5028375;28;20058;-55
2021/12/18 03:05:06;;;;;;;10.02;4.55;;;;;;;7.43;100.00;103947.31;5031540;28;20045;-56
2021/12/18 03:07:36;;;;;;;11.77;5.15;;;;;;;7.42;100.00;103942.94;5035678;28;20445;-56
2021/12/18 03:22:35;;;;;;;11.80;4.78;;;;;;;7.41;100.00;103933.31;5033020;28;20508;-53
2021/12/18 03:24:33;;;;;;;10.85;4.80;;;;;;;7.43;100.00;103928.06;5035441;28;20099;-54
2021/12/18 03:27:01;;;;;;;;;;;;;;;7.43;100.00;103931.59;5035923;28;20600;-54
2021/12/18 03:29:29;;;;;;;11.00;4.60;;;;;;;7.35;100.00;103941.22;5035217;28;20358;-55
2021/12/18 03:31:57;;;;;;;10.88;5.47;;;;;;;7.36;100.00;103939.44;5034372;28;20041;-54
2021/12/18 03:34:25;;;;;;;11.68;4.53;;;;;;;7.36;100.00;103940.34;5030000;28;20049;-55
2021/12/18 03:36:53;;;;;;;11.13;4.80;;;;;;;7.36;100.00;103942.97;5034011;28;20049;-54
2021/12/18 03:39:21;;;;;;;11.15;4.88;;;;;;;7.34;100.00;103941.22;5035146;28;20107;-54
2021/12/18 03:41:52;;;;;;;11.73;4.60;;;;;;;7.39;100.00;103942.94;5034925;28;20049;-54
2021/12/18 03:44:20;;;;;;;10.63;4.03;;;;;;;7.36;100.00;103939.44;5035001;28;20047;-54
2021/12/18 03:46:49;;;;;;;11.45;4.97;;;;;;;7.20;100.00;103943.84;5034921;28;20100;-54
2021/12/18 03:49:17;;;;;;;11.30;4.47;;;;;;;7.23;100.00;103942.09;5035060;28;20531;-56
2021/12/18 03:51:45;;;;;;;12.18;5.03;;;;;;;7.27;100.00;103941.22;5034767;28;20049;-56
2021/12/18 03:54:13;;;;;;;11.75;5.10;;;;;;;7.21;100.00;103938.63;5034720;28;20443;-59
2021/12/18 03:56:42;;;;;;;10.60;4.32;;;;;;;7.26;100.00;103938.59;5033016;28;20064;-57
2021/12/18 03:59:11;;;;;;;10.32;4.35;;;;;;;7.26;100.00;103939.47;5029996;28;20072;-57
2021/12/18 04:01:39;;;;;;;10.10;4.97;;;;;;;7.19;100.00;103945.59;5031867;28;20728;-57
2021/12/18 04:04:07;;;;;;;10.57;4.60;;;;;;;7.15;100.00;103945.63;5032223;28;20033;-57
2021/12/18 04:06:38;;;;;;;10.75;4.25;;;;;;;7.17;100.00;103949.09;5031521;28;20624;-56
2021/12/18 04:09:06;;;;;;;11.05;4.35;;;;;;;7.06;100.00;103936.91;5032667;28;20056;-54
2021/12/18 04:11:34;;;;;;;9.85;3.78;;;;;;;7.11;100.00;103939.50;5030984;28;20060;-54
2021/12/18 04:14:03;;;;;;;9.82;4.10;;;;;;;7.08;100.00;103947.38;5031570;28;20388;-53
2021/12/18 04:16:33;;;;;;;11.15;4.55;;;;;;;7.07;100.00;103945.59;5024604;28;20133;-53
2021/12/18 04:19:02;;;;;;;9.55;3.80;;;;;;;7.07;100.00;103940.38;5031367;28;20056;-54
2021/12/18 04:21:30;;;;;;;10.18;4.50;;;;;;;7.02;100.00;103936.88;5028102;28;20041;-56
2021/12/18 04:23:58;;;;;;;12.07;4.55;;;;;;;7.05;100.00;103934.28;5030134;28;20041;-54
2021/12/18 04:26:27;;;;;;;9.82;4.57;;;;;;;7.02;100.00;103940.41;5030876;28;20046;-56
2021/12/18 04:28:55;;;;;;;9.73;3.72;;;;;;;7.00;100.00;103942.13;5027478;28;20439;-56
2021/12/18 04:31:23;;;;;;;10.60;3.80;;;;;;;7.03;100.00;103943.88;5031117;28;20046;-54
2021/12/18 04:33:53;;;;;;;8.48;3.83;;;;;;;7.00;100.00;103951.72;5026478;28;20049;-54
2021/12/18 04:36:22;;;;;;;9.82;3.30;;;;;;;6.88;100.00;103952.59;5029777;28;20045;-54
2021/12/18 04:38:51;;;;;;;8.65;3.20;;;;;;;6.83;100.00;103944.75;5030903;28;20057;-55
2021/12/18 04:41:23;;;;;;;7.40;2.58;;;;;;;6.85;100.00;103939.53;5030849;28;20052;-56
2021/12/18 04:43:52;;;;;;;8.15;2.80;;;;;;;6.82;100.00;103942.16;5028098;28;20049;-54
2021/12/18 04:46:21;;;;;;;8.15;2.95;;;;;;;6.89;100.00;103939.50;5029946;28;20053;-54
2021/12/18 04:48:49;;;;;;;7.88;3.05;;;;;;;6.85;100.00;103929.91;5030905;28;20121;-53
2021/12/18 04:51:18;;;;;;;8.25;3.08;;;;;;;6.85;100.00;103936.91;5033788;28;20041;-53
2021/12/18 04:53:47;;;;;;;7.25;2.63;;;;;;;6.83;100.00;103934.28;5032231;28;20053;-54
2021/12/18 04:56:15;;;;;;;7.68;2.97;;;;;;;6.89;100.00;103934.28;5030936;28;20488;-53
2021/12/18 04:58:43;;;;;;;10.45;3.35;;;;;;;6.90;100.00;103941.25;5032851;28;20057;-53
2021/12/18 05:01:11;;;;;;;9.18;3.33;;;;;;;6.86;100.00;103938.66;5033425;28;20061;-54
2021/12/18 05:03:40;;;;;;;7.47;2.97;;;;;;;6.85;100.00;103940.38;5033702;28;20517;-55
2021/12/18 05:06:08;;;;;;;8.27;3.35;;;;;;;6.83;100.00;103939.53;5033312;28;20045;-53
2021/12/18 05:08:38;;;;;;;9.15;3.60;;;;;;;6.77;100.00;103940.38;5032020;28;20083;-52
2021/12/18 05:11:06;;;;;;;8.88;3.55;;;;;;;6.76;100.00;103948.22;5030716;28;20038;-54
2021/12/18 05:13:34;;;;;;;9.48;3.17;;;;;;;6.82;100.00;103952.63;5032782;28;20045;-54
2021/12/18 05:16:04;;;;;;;9.32;3.22;;;;;;;6.90;100.00;103945.63;5033307;28;20050;-54
2021/12/18 05:18:32;;;;;;;7.82;3.05;;;;;;;6.93;100.00;103941.25;5033226;28;20045;-54
2021/12/18 05:21:00;;;;;;;8.15;3.20;;;;;;;6.95;100.00;103943.88;5032003;28;20056;-54
2021/12/18 05:23:28;;;;;;;10.15;3.60;;;;;;;6.90;100.00;103940.41;5030004;28;20041;-54
2021/12/18 05:25:57;;;;;;;8.73;2.88;;;;;;;6.91;100.00;103949.97;5032728;28;20099;-56
2021/12/18 05:28:25;;;;;;;7.72;3.17;;;;;;;6.96;100.00;103950.00;5032281;28;20049;-53
2021/12/18 05:30:53;;;;;;;8.10;3.08;;;;;;;6.84;100.00;103946.47;5033107;28;20041;-53
2021/12/18 05:33:22;;;;;;;7.40;3.10;;;;;;;6.84;100.00;103943.88;5030290;28;20092;-56
2021/12/18 05:35:50;;;;;;;7.20;2.67;;;;;;;6.83;100.00;103950.00;5030196;28;20111;-55
2021/12/18 05:38:18;;;;;;;7.57;2.60;;;;;;;6.85;100.00;103948.22;5031913;28;20045;-55
2021/12/18 05:40:46;;;;;;;7.68;2.90;;;;;;;6.83;100.00;103955.22;5032432;28;20088;-54
2021/12/18 05:43:15;;;;;;;8.20;3.33;;;;;;;6.82;100.00;103953.47;5032127;28;20049;-53
2021/12/18 05:45:44;;;;;;;7.97;3.05;;;;;;;6.88;100.00;103947.38;5032487;28;20111;-54
2021/12/18 05:48:12;;;;;;;7.75;2.95;;;;;;;6.89;100.00;103947.34;5029809;28;20064;-55
2021/12/18 05:50:45;;;;;;;7.50;2.72;;;;;;;6.91;100.00;103953.47;5029407;28;20045;-55
2021/12/18 05:53:14;;;;;;;;;;;;;;;6.96;100.00;103950.84;5031585;28;20061;-55
2021/12/18 05:55:42;;;;;;;7.97;3.05;;;;;;;6.89;100.00;103952.59;5030132;28;19925;-55
2021/12/18 05:58:10;;;;;;;8.20;2.80;;;;;;;6.89;100.00;103949.13;5030592;28;20049;-55
2021/12/18 06:00:40;;;;;;;7.72;2.90;;;;;;;6.90;100.00;103951.72;5032506;28;20045;-53
2021/12/18 06:03:08;;;;;;;7.90;2.70;;;;;;;6.84;100.00;103951.72;5032585;28;20045;-54
2021/12/18 06:05:36;;;;;;;8.90;3.17;;;;;;;6.71;100.00;103947.38;5032192;28;20124;-54
2021/12/18 06:08:10;;;;;;;7.70;3.00;;;;;;;6.76;100.00;103948.22;5029584;28;20050;-50
2021/12/18 06:10:39;;;;;;;7.35;2.58;;;;;;;6.76;100.00;103948.22;5030978;28;20051;-52
2021/12/18 06:13:07;;;;;;;6.82;2.13;;;;;;;6.80;100.00;103942.13;5032125;28;20064;-52
2021/12/18 06:15:35;;;;;;;6.85;2.15;;;;;;;6.81;100.00;103943.00;5032208;28;20095;-50
2021/12/18 06:18:04;;;;;;;7.60;2.78;;;;;;;6.85;100.00;103934.28;5032252;28;20107;-52
2021/12/18 06:20:33;;;;;;;7.20;2.65;;;;;;;6.73;100.00;103938.63;5032624;28;20488;-53
2021/12/18 06:23:01;;;;;;;7.13;2.35;;;;;;;6.75;100.00;103931.66;5032001;28;20053;-53
2021/12/18 06:25:29;;;;;;;5.25;2.05;;;;;;;6.70;100.00;103938.63;5032079;28;20053;-53
2021/12/18 06:27:57;;;;;;;6.95;2.47;;;;;;;6.67;100.00;103928.19;5032144;28;20041;-54
2021/12/18 06:30:26;;;;;;;7.57;2.58;;;;;;;6.69;100.00;103936.88;5032322;28;20103;-53
2021/12/18 06:32:54;;;;;;;6.20;1.83;;;;;;;6.60;100.00;103940.38;5032123;28;20057;-54
2021/12/18 06:35:23;;;;;;;6.28;2.22;;;;;;;6.63;100.00;103941.28;5031420;28;20133;-55
2021/12/18 06:37:52;;;;;;;7.18;2.50;;;;;;;6.63;100.00;103949.13;5029362;28;20056;-55
2021/12/18 06:40:21;;;;;;;6.95;2.30;;;;;;;6.66;100.00;103947.34;5034465;28;20138;-54
2021/12/18 06:42:49;;;;;;;6.93;1.95;;;;;;;6.49;100.00;103952.56;5036369;28;20045;-55
2021/12/18 06:45:21;;;;;;;5.50;1.73;;;;;;;6.51;100.00;103958.66;5034706;28;20053;-54
2021/12/18 06:47:49;;;;;;;5.68;1.65;;;;;;;6.54;100.00;103945.59;5036126;28;20045;-55
2021/12/18 06:50:17;;;;;;;5.43;1.90;;;;;;;6.50;100.00;103958.66;5035974;28;20091;-54
2021/12/18 06:52:47;;;;;;;6.20;1.92;;;;;;;6.43;100.00;103956.06;5035970;28;20053;-54
2021/12/18 06:55:15;;;;;;;5.90;1.98;;;;;;;6.42;100.00;103959.53;5034190;28;20041;-54
2021/12/18 06:57:44;;;;;;;4.00;1.25;;;;;;;6.39;100.00;103959.53;5032752;28;20053;-55
2021/12/18 07:00:15;;;;;;;5.30;1.63;;;;;;;6.37;100.00;103957.78;5035730;28;20042;-56
2021/12/18 07:02:43;;;;;;;4.18;1.58;;;;;;;6.41;100.00;103959.53;5035777;28;20107;-56
2021/12/18 07:05:12;;;;;;;4.22;1.40;;;;;;;6.40;100.00;103965.63;5035632;28;20080;-52
2021/12/18 07:07:40;;;;;;;5.25;1.83;;;;;;;6.36;100.00;103963.88;5035802;28;20095;-52
2021/12/18 07:10:12;;;;;;;4.43;1.65;;;;;;;6.37;100.00;103961.25;5035455;28;20390;-55
2021/12/18 07:12:41;;;;;;;4.57;1.33;;;;;;;6.42;100.00;103964.75;5035461;28;20119;-55
2021/12/18 07:15:12;;;;;;;4.60;1.45;;;;;;;6.47;100.00;103963.91;5035350;28;20041;-55
2021/12/18 07:17:40;;;;;;;3.65;1.27;;;;;;;6.35;100.00;103965.59;5033017;28;20473;-56
2021/12/18 07:20:10;;;;;;;3.63;1.52;;;;;;;6.38;100.00;103967.34;5032140;28;20041;-54
2021/12/18 07:22:38;;;;;;;3.92;1.40;;;;;;;6.38;100.00;103967.34;5034743;28;20057;-54
2021/12/18 07:25:09;;;;;;;3.50;1.20;;;;;;;6.40;100.00;103973.47;5032946;28;20381;-55
2021/12/18 07:27:38;;;;;;;4.45;1.50;;;;;;;6.33;100.00;103972.56;5033226;28;20079;-54
2021/12/18 07:30:08;;;;;;;4.47;1.20;;;;;;;6.37;100.00;103966.50;5035130;28;20496;-52
2021/12/18 07:32:36;;;;;;;2.63;1.10;;;;;;;6.38;100.00;103967.34;5035344;28;20049;-53
2021/12/18 07:35:04;;;;;;;3.25;1.05;;;;;;;6.40;100.00;103969.09;5034107;28;20053;-54
2021/12/18 07:37:33;;;;;;;2.45;0.90;;;;;;;6.36;100.00;103974.34;5035526;28;20045;-54
2021/12/18 07:40:01;;;;;;;3.30;1.05;;;;;;;6.38;100.00;103977.81;5034880;28;20045;-55
2021/12/18 07:42:30;;;;;;;2.42;0.88;;;;;;;6.35;100.00;103977.81;5033402;28;20057;-54
2021/12/18 07:44:59;;;;;;;2.38;0.90;;;;;;;6.29;100.00;103985.66;5031756;28;20056;-54
2021/12/18 07:47:27;;;;;;;6.70;1.55;;;;;;;6.33;100.00;103982.19;5033744;28;20395;-53
2021/12/18 07:49:55;;;;;;;2.67;1.05;;;;;;;6.31;100.00;103976.91;5033501;28;20439;-50
2021/12/18 07:52:24;;;;;;;3.45;1.08;;;;;;;6.33;100.00;103976.94;5031432;28;20049;-54
2021/12/18 07:54:52;;;;;;;3.90;1.23;;;;;;;6.28;100.00;103971.69;5033124;28;20512;-55
2021/12/18 07:57:20;;;;;;;3.88;1.00;;;;;;;6.31;100.00;103976.06;5034315;28;20099;-55
2021/12/18 07:59:50;;;;;;;2.75;0.90;;;;;;;6.35;100.00;103977.81;5030615;28;20049;-54
2021/12/18 08:02:18;;;;;;;2.25;1.00;;;;;;;6.39;100.00;103972.59;5033518;28;20050;-52
2021/12/18 08:04:46;;;;;;;2.67;0.90;;;;;;;6.34;100.00;103974.34;5029297;28;20539;-54
2021/12/18 08:07:14;;;;;;;3.72;1.33;;;;;;;6.32;100.00;103977.81;5032468;28;20045;-54
2021/12/18 08:09:42;;;;;;;4.35;1.30;;;;;;;6.34;100.00;103968.22;5034847;28;20061;-54
2021/12/18 08:12:10;;;;;;;3.42;1.17;;;;;;;6.38;100.00;103973.47;5033235;28;20049;-56
2021/12/18 08:14:38;;;;;;;2.88;1.50;;;;;;;6.41;100.00;103977.84;5034375;28;20128;-56
2021/12/18 08:17:08;;;;;;;3.58;1.30;;;;;;;6.34;100.00;103965.59;5034326;28;20053;-55
2021/12/18 08:19:36;;;;;;;4.13;1.50;;;;;;;6.31;100.00;103969.06;5033260;28;20041;-55
2021/12/18 08:22:05;;;;;;;3.50;1.10;;;;;;;6.32;100.00;103962.97;5027575;28;20258;-56
2021/12/18 08:24:33;;;;;;;4.05;1.58;;;;;;;6.34;100.00;103968.22;5032519;28;20083;-57
2021/12/18 08:27:01;;;;;;;3.45;1.05;;;;;;;6.31;100.00;103976.06;5034400;28;20496;-56
2021/12/18 08:29:29;;;;;;;3.92;1.17;;;;;;;6.21;100.00;103968.19;5034537;28;20384;-54
2021/12/18 08:31:58;;;;;;;3.47;1.30;;;;;;;6.24;100.00;103976.06;5033299;28;20041;-55
2021/12/18 08:34:27;;;;;;;2.42;0.75;;;;;;;6.04;100.00;103975.09;5028152;28;20049;-52
2021/12/18 08:36:55;;;;;;;2.33;0.90;;;;;;;6.14;100.00;103973.41;5032457;28;20045;-52
2021/12/18 08:39:27;;;;;;;4.22;1.25;;;;;;;6.01;100.00;103975.97;5033821;28;20048;-54
2021/12/18 08:41:58;;;;;;;2.05;1.13;;;;;;;6.02;100.00;103974.22;5033902;28;20057;-55
2021/12/18 08:44:26;;;;;;;3.17;1.00;;;;;;;6.11;100.00;103975.97;5028496;28;20037;-53
2021/12/18 08:46:54;;;;;;;1.50;0.80;;;;;;;6.15;100.00;103970.78;5032211;28;20045;-53
2021/12/18 08:49:22;;;;;;;2.67;0.93;;;;;;;6.13;100.00;103964.66;5032575;28;20049;-51
2021/12/18 08:51:55;;;;;;;2.63;0.90;;;;;;;6.13;100.00;103967.28;5030553;28;20065;-51
2021/12/18 08:54:25;;;;;;;2.83;1.00;;;;;;;6.18;100.00;103960.34;5029624;28;20045;-53
2021/12/18 08:57:08;;;;;;;2.63;1.00;;;;;;;6.22;100.00;103964.69;5033474;28;20041;-53
2021/12/18 08:59:37;;;;;;;2.35;0.90;;;;;;;6.10;100.00;103967.28;5033708;28;20055;-53
2021/12/18 09:02:05;;;;;;;2.28;1.00;;;;;;;5.99;100.00;103958.53;5033413;28;20053;-53
2021/12/18 09:04:34;;;;;;;2.72;0.85;;;;;;;5.99;100.00;103958.53;5032458;28;20045;-53
2021/12/18 09:07:04;;;;;;;3.47;1.02;;;;;;;6.02;100.00;103953.31;5033299;28;20053;-55
2021/12/18 09:09:38;;;;;;;2.58;0.93;;;;;;;6.02;100.00;103958.53;5033818;28;20045;-52
2021/12/18 09:12:08;;;;;;;2.42;0.77;;;;;;;5.90;100.00;103962.81;5031060;28;20064;-54
2021/12/18 09:14:36;;;;;;;2.83;1.05;;;;;;;5.97;100.00;103965.44;5029753;28;20053;-54
2021/12/18 09:17:04;;;;;;;2.20;0.82;;;;;;;5.99;100.00;103959.41;5030198;28;20504;-54
2021/12/18 09:19:32;;;;;;;1.70;0.85;;;;;;;5.89;100.00;103962.78;5032036;28;20065;-54
2021/12/18 09:22:01;;;;;;;1.85;0.80;;;;;;;5.93;100.00;103969.78;5032184;28;20053;-54
2021/12/18 09:24:31;;;;;;;1.17;0.70;;;;;;;5.95;100.00;103975.03;5031761;28;20057;-54
2021/12/18 09:26:59;;;;;;;1.63;0.73;;;;;;;5.95;100.00;103975.03;5031812;28;20056;-53
2021/12/18 09:29:27;;;;;;;1.95;1.02;;;;;;;5.96;100.00;103975.03;5031857;28;20041;-55
2021/12/18 09:31:55;;;;;;;2.63;1.08;;;;;;;5.97;100.00;103986.34;5029113;28;20041;-54
2021/12/18 09:34:26;;;;;;;2.40;1.42;;;;;;;5.95;100.00;103978.50;5027791;28;20485;-55
2021/12/18 09:36:54;;;;;;;2.47;1.00;;;;;;;5.99;100.00;103990.75;5032647;28;20053;-54
2021/12/18 09:39:23;;;;;;;3.35;0.90;;;;;;;5.88;100.00;103977.59;5031656;28;20042;-53
2021/12/18 09:41:53;;;;;;;2.13;0.80;;;;;;;5.88;100.00;103985.44;5030073;28;20488;-54
2021/12/18 09:44:23;;;;;;;1.30;0.70;;;;;;;5.97;100.00;103981.13;5030748;28;20400;-53
2021/12/18 09:46:52;;;;;;;2.70;0.80;;;;;;;5.91;100.00;103985.44;5032825;28;20045;-54
2021/12/18 09:49:20;;;;;;;2.03;0.75;;;;;;;5.89;100.00;103987.19;5027274;28;20057;-52
2021/12/18 09:51:49;;;;;;;2.30;0.80;;;;;;;5.92;100.00;103987.19;5028654;28;20049;-51
2021/12/18 09:54:18;;;;;;;1.95;0.80;;;;;;;5.94;100.00;103987.22;5031304;28;20443;-54
2021/12/18 09:56:47;;;;;;;2.28;0.90;;;;;;;5.89;100.00;103978.47;5030526;28;20053;-55
2021/12/18 09:59:17;;;;;;;2.70;1.17;;;;;;;6.09;100.00;103986.44;5028511;28;20049;-56
2021/12/18 10:01:45;;;;;;;2.33;1.00;;;;;;;6.09;100.00;103975.97;5029059;28;20049;-54
2021/12/18 10:04:26;;;;;;;2.05;0.85;;;;;;;6.14;100.00;103981.25;5032685;28;20350;-55
2021/12/18 10:06:57;;;;;;;2.42;1.05;;;;;;;6.18;100.00;103975.16;5028129;28;20056;-55
2021/12/18 10:09:36;;;;;;;2.28;1.00;;;;;;;6.21;100.00;103977.78;5028766;28;20045;-54
2021/12/18 10:12:14;;;;;;;2.80;1.00;;;;;;;6.29;100.00;103970.81;5031272;28;20115;-54
2021/12/18 10:14:47;;;;;;;2.60;1.10;;;;;;;6.20;100.00;103973.41;5031698;28;20484;-55
2021/12/18 10:17:22;;;;;;;3.33;1.15;;;;;;;6.07;100.00;103973.38;5032450;28;20056;-55
2021/12/18 10:19:52;;;;;;;2.95;1.10;;;;;;;6.01;100.00;103972.47;5028587;28;20034;-55
2021/12/18 10:22:20;;;;;;;2.40;1.15;;;;;;;6.17;100.00;103958.59;5027691;28;20551;-54
2021/12/18 10:25:02;;;;;;;2.75;0.95;;;;;;;6.24;100.00;103965.59;5025336;28;20385;-54
2021/12/18 10:27:30;;;;;;;2.95;1.20;;;;;;;6.22;100.00;103967.31;5031167;28;20037;-53
2021/12/18 10:30:16;;;;;;;2.25;1.17;;;;;;;6.22;100.00;103956.00;5031164;28;20037;-54
2021/12/18 10:32:56;;;;;;;3.35;1.40;;;;;;;6.23;100.00;103953.38;5031937;28;20048;-54
2021/12/18 10:35:37;;;;;;;2.22;1.20;;;;;;;6.22;100.00;103956.88;5032006;28;20520;-52
2021/12/18 10:38:05;;;;;;;3.45;1.23;;;;;;;6.19;100.00;103958.59;5025374;28;20092;-55
2021/12/18 10:40:46;;;;;;;2.50;1.10;;;;;;;6.12;100.00;103954.22;5028152;28;20054;-54
2021/12/18 10:43:16;;;;;;;3.70;1.55;;;;;;;6.13;100.00;103956.81;5030870;28;20049;-53
2021/12/18 10:45:45;;;;;;;3.50;1.30;;;;;;;6.12;100.00;103956.81;5014280;28;20049;-55
2021/12/18 10:48:16;;;;;;;4.38;1.52;;;;;;;6.05;100.00;103950.69;5011239;28;20042;-54
2021/12/18 10:50:46;;;;;;;3.88;1.20;;;;;;;6.17;100.00;103953.34;5011257;28;20045;-54
2021/12/18 10:53:17;;;;;;;4.82;1.58;;;;;;;6.18;100.00;103952.50;5024476;28;20429;-54
2021/12/18 10:55:48;;;;;;;3.70;1.60;;;;;;;6.17;100.00;103935.06;5030995;28;20053;-56
2021/12/18 10:58:20;;;;;;;4.38;1.77;;;;;;;6.06;100.00;103939.41;5029028;28;20532;-57
2021/12/18 11:00:54;;;;;;;5.13;1.77;;;;;;;6.14;100.00;103944.66;5030668;28;20041;-55
2021/12/18 11:03:33;;;;;;;3.38;1.55;;;;;;;6.12;100.00;103935.91;5028793;28;20559;-55
2021/12/18 11:06:20;;;;;;;4.68;1.67;;;;;;;6.05;100.00;103940.25;5011149;28;20128;-56
2021/12/18 11:09:04;;;;;;;3.15;1.30;;;;;;;5.98;100.00;103936.75;5028608;28;20045;-54
2021/12/18 11:14:25;;;;;;;2.03;0.95;;;;;;;5.88;100.00;103935.81;5014014;28;20054;-55
2021/12/18 11:16:58;;;;;;;1.48;0.90;;;;;;;6.05;100.00;103937.63;5010817;28;20058;-54
2021/12/18 11:19:27;;;;;;;;;;;;;;;6.07;100.00;103933.31;5011265;28;20037;-53
2021/12/18 11:21:59;;;;;;;2.17;1.15;;;;;;;6.13;100.00;103924.59;5013618;28;20339;-55
2021/12/18 11:24:33;;;;;;;1.87;0.90;;;;;;;6.13;100.00;103930.69;5030926;28;20052;-54
2021/12/18 11:27:04;;;;;;;1.30;0.77;;;;;;;6.21;100.00;103923.75;5034276;28;20399;-54
2021/12/18 11:29:40;;;;;;;2.33;1.08;;;;;;;6.30;100.00;103924.63;5033945;28;20516;-55
2021/12/18 11:32:11;;;;;;;2.08;0.90;;;;;;;6.47;100.00;103919.44;5033659;28;20133;-55
2021/12/18 11:34:40;;;;;;;3.30;1.00;;;;;;;6.55;100.00;103926.41;5034031;28;20073;-53
2021/12/18 11:37:12;;;;;;;2.35;1.02;;;;;;;6.54;100.00;103916.81;5033529;28;20045;-53
2021/12/18 11:39:41;;;;;;;2.60;1.00;;;;;;;6.47;100.00;103915.09;5033877;28;20042;-52
2021/12/18 11:42:09;;;;;;;1.10;0.90;;;;;;;6.38;100.00;103909.84;5033893;28;20800;-52
2021/12/18 11:44:40;;;;;;;4.22;1.25;;;;;;;6.37;100.00;103908.97;5033390;28;20381;-55
2021/12/18 11:47:28;;;;;;;3.28;1.33;;;;;;;6.49;100.00;103910.75;5033565;28;20414;-55
2021/12/18 11:49:58;;;;;;;2.70;1.10;;;;;;;6.52;100.00;103908.13;5033737;28;20095;-54
2021/12/18 11:52:27;;;;;;;1.98;1.10;;;;;;;6.56;100.00;103904.63;5033031;28;20554;-54
2021/12/18 11:54:58;;;;;;;2.38;1.15;;;;;;;6.59;100.00;103894.16;5033332;28;20042;-54
2021/12/18 11:57:42;;;;;;;4.38;1.88;;;;;;;6.74;100.00;103893.28;5034552;28;20065;-52
2021/12/18 12:00:35;;;;;;;5.97;2.85;;;;;;;6.54;100.00;103888.06;5034673;28;20068;-52
2021/12/18 12:03:07;;;;;;;4.13;1.90;;;;;;;6.68;100.00;103892.41;5034882;28;20053;-52
2021/12/18 12:05:39;;;;;;;9.65;3.85;;;;;;;6.63;100.00;103895.03;5034723;28;20046;-53
2021/12/18 12:08:33;;;;;;;5.68;2.03;;;;;;;6.66;100.00;103894.19;5034745;28;20049;-55
2021/12/18 12:11:21;;;;;;;14.82;5.60;;;;;;;6.71;100.00;103895.06;5033733;28;20072;-54